Time;durP1;ratioP1;P1;durP2;ratioP2;P2;SDS_P1;SDS_P2;PMS_P1;PMS_P2;Temp;Humidity;BMP_temperature;BMP_pressure;BME280_temperature;BME280_humidity;BME280_pressure;Samples;Min_cycle;Max_cycle;Signal;HPM_P1;HPM_P2
2021/01/28 00:00:41;;;;;;;14.05;8.08;;;;;;;-3.46;89.46;98832.41;1750321;81;21144;-78
2021/01/28 00:03:12;;;;;;;13.70;7.72;;;;;;;-3.44;89.62;98837.52;1741428;81;21276;-78
2021/01/28 00:05:41;;;;;;;15.05;7.97;;;;;;;-3.42;89.65;98839.22;1786276;79;22166;-82
2021/01/28 00:08:09;;;;;;;15.05;7.95;;;;;;;-3.39;89.66;98836.64;1761925;81;21222;-79
2021/01/28 00:10:37;;;;;;;14.93;7.40;;;;;;;-3.37;89.69;98829.80;1771477;80;27574;-84
2021/01/28 00:13:07;;;;;;;14.43;7.58;;;;;;;-3.33;89.67;98832.33;1758366;81;21123;-78
2021/01/28 00:15:36;;;;;;;16.25;8.10;;;;;;;-3.31;89.70;98825.52;1754767;81;21462;-77
2021/01/28 00:18:05;;;;;;;13.70;8.55;;;;;;;-3.30;89.68;98820.86;1752496;80;21198;-81
2021/01/28 00:20:46;;;;;;;16.05;9.13;;;;;;;-3.28;89.67;98817.41;1777243;80;21136;-78
2021/01/28 00:23:14;;;;;;;13.68;8.25;;;;;;;-3.26;89.65;98818.69;1780054;80;21714;-82
2021/01/28 00:25:42;;;;;;;12.88;7.85;;;;;;;-3.24;89.68;98816.98;1787342;80;21155;-78
2021/01/28 00:28:13;;;;;;;16.97;8.45;;;;;;;-3.23;89.65;98810.58;1781765;80;21490;-78
2021/01/28 00:30:45;;;;;;;13.75;9.65;;;;;;;-3.22;89.65;98807.59;1744688;82;21632;-78
2021/01/28 00:33:17;;;;;;;17.42;8.85;;;;;;;-3.22;89.67;98805.03;1748806;82;21139;-82
2021/01/28 00:35:48;;;;;;;16.45;9.90;;;;;;;-3.21;89.66;98802.92;1746460;80;21145;-77
2021/01/28 00:38:20;;;;;;;13.40;9.88;;;;;;;-3.20;89.66;98798.22;1754907;80;21199;-77
2021/01/28 00:40:47;;;;;;;18.15;9.75;;;;;;;-3.19;89.73;98796.11;1784103;79;21148;-81
2021/01/28 00:43:14;;;;;;;19.48;9.68;;;;;;;-3.18;89.77;98791.41;1754636;80;21233;-83
2021/01/28 00:45:42;;;;;;;15.48;9.85;;;;;;;-3.18;89.76;98791.41;1781320;80;21196;-77
2021/01/28 00:48:10;;;;;;;12.23;9.03;;;;;;;-3.14;89.87;98790.52;1771520;80;21092;-82
2021/01/28 00:50:39;;;;;;;14.23;10.00;;;;;;;-3.11;89.89;98782.83;1750953;81;21212;-79
2021/01/28 00:53:08;;;;;;;17.50;10.80;;;;;;;-3.08;89.87;98769.19;1750029;82;21172;-83
2021/01/28 00:55:35;;;;;;;15.05;10.05;;;;;;;-3.05;89.88;98762.38;1755041;81;21215;-80
2021/01/28 00:58:03;;;;;;;17.48;12.20;;;;;;;-3.03;89.87;98759.36;1747871;81;21195;-78
2021/01/28 01:00:34;;;;;;;15.60;11.20;;;;;;;-3.01;89.86;98748.70;1730278;82;21124;-78
2021/01/28 01:03:01;;;;;;;16.37;10.80;;;;;;;-2.98;89.82;98747.84;1747293;81;21160;-79
2021/01/28 01:05:32;;;;;;;16.50;11.10;;;;;;;-2.97;89.82;98752.08;1748779;81;21227;-81
2021/01/28 01:08:04;;;;;;;18.07;10.75;;;;;;;-2.96;89.79;98748.68;1751519;81;21887;-77
2021/01/28 01:10:42;;;;;;;16.50;11.80;;;;;;;-2.95;89.88;98746.09;1724565;81;21135;-76
2021/01/28 01:13:14;;;;;;;16.10;11.05;;;;;;;-2.91;89.90;98739.28;1729537;81;21204;-80
2021/01/28 01:15:40;;;;;;;15.72;11.53;;;;;;;-2.88;89.94;98725.20;1756224;80;21196;-80
2021/01/28 01:18:11;;;;;;;18.17;12.18;;;;;;;-2.82;89.94;98723.02;1746743;81;21550;-77
2021/01/28 01:20:39;;;;;;;17.67;11.90;;;;;;;-2.79;89.94;98717.88;1758529;81;22327;-80
2021/01/28 01:23:06;;;;;;;;;;;;;;;-2.75;89.96;98715.69;1761068;81;21126;-81
2021/01/28 01:25:33;;;;;;;16.70;12.30;;;;;;;-2.72;89.96;98706.72;1773789;80;20239;-82
2021/01/28 01:28:00;;;;;;;18.32;12.20;;;;;;;-2.68;89.96;98700.73;1775801;80;21135;-79
2021/01/28 01:30:28;;;;;;;19.35;12.82;;;;;;;-2.65;89.96;98698.14;1761567;81;21119;-82
2021/01/28 01:32:55;;;;;;;18.35;11.88;;;;;;;-2.61;90.02;98697.23;1761461;81;22433;-78
2021/01/28 01:35:24;;;;;;;16.45;11.38;;;;;;;-2.58;89.94;98685.69;1766697;80;21132;-80
2021/01/28 01:37:54;;;;;;;19.07;12.70;;;;;;;-2.57;89.95;98683.58;1762790;80;21175;-78
2021/01/28 01:40:32;;;;;;;20.48;13.70;;;;;;;-2.55;89.93;98676.74;1761404;81;21179;-78
2021/01/28 01:43:01;;;;;;;17.62;12.25;;;;;;;-2.52;89.99;98671.59;1761126;81;21682;-78
2021/01/28 01:45:47;;;;;;;19.07;13.55;;;;;;;-2.49;90.01;98669.00;1761364;81;21188;-77
2021/01/28 01:48:19;;;;;;;21.13;14.13;;;;;;;-2.45;90.05;98669.80;1775272;80;21145;-79
2021/01/28 01:51:16;;;;;;;21.55;14.47;;;;;;;-2.41;90.05;98653.98;1783011;80;21108;-81
2021/01/28 01:53:56;;;;;;;23.75;15.45;;;;;;;-2.39;90.05;98649.70;1783120;80;21190;-83
2021/01/28 01:56:35;;;;;;;17.17;13.10;;;;;;;-2.36;90.02;98638.16;1782953;80;21151;-81
2021/01/28 01:59:06;;;;;;;19.90;14.75;;;;;;;-2.34;90.05;98633.88;1782953;80;21251;-83
2021/01/28 02:01:50;;;;;;;20.00;13.98;;;;;;;-2.33;90.00;98626.61;1782957;80;21290;-79
2021/01/28 02:04:19;;;;;;;20.62;14.83;;;;;;;-2.33;89.98;98625.34;1782816;80;21128;-80
2021/01/28 02:06:56;;;;;;;21.02;15.15;;;;;;;-2.34;90.00;98622.37;1782945;80;21162;-81
2021/01/28 02:09:23;;;;;;;20.68;14.55;;;;;;;-2.34;89.96;98618.55;1766191;80;21143;-80
2021/01/28 02:11:51;;;;;;;21.40;15.40;;;;;;;-2.36;89.97;98615.16;1747129;82;22202;-84
2021/01/28 02:14:19;;;;;;;19.37;14.10;;;;;;;-2.36;90.04;98615.16;1708919;82;26794;-77
2021/01/28 02:16:51;;;;;;;18.98;14.13;;;;;;;-2.35;90.05;98604.05;1734059;82;21170;-83
2021/01/28 02:22:54;;;;;;;20.32;14.43;;;;;;;-2.31;90.11;98590.37;1847410;77;22695;-77
2021/01/28 02:25:26;;;;;;;;;;;;;;;-2.35;90.09;98588.71;1787334;80;21194;-79
2021/01/28 02:27:58;;;;;;;21.10;14.05;;;;;;;-2.36;90.11;98593.42;1799486;79;22164;-78
2021/01/28 02:30:28;;;;;;;18.00;14.40;;;;;;;-2.36;90.12;98584.48;1811408;79;21131;-77
2021/01/28 02:32:55;;;;;;;24.57;16.45;;;;;;;-2.38;90.10;98581.95;1808852;79;21136;-80
2021/01/28 02:35:27;;;;;;;27.45;16.97;;;;;;;-2.39;90.12;98563.62;1808835;79;21249;-82
2021/01/28 02:37:57;;;;;;;22.77;17.60;;;;;;;-2.40;90.07;98554.72;1800729;79;21206;-82
2021/01/28 02:40:27;;;;;;;24.00;16.95;;;;;;;-2.41;90.07;98560.68;1807718;79;22038;-82
2021/01/28 02:42:55;;;;;;;24.85;16.07;;;;;;;-2.44;90.05;98554.33;1741449;82;21037;-80
2021/01/28 02:45:33;;;;;;;26.27;17.67;;;;;;;-2.43;90.07;98557.32;1757990;81;21179;-79
2021/01/28 02:48:07;;;;;;;28.07;17.07;;;;;;;-2.44;90.08;98543.67;1758232;81;21131;-79
2021/01/28 02:50:36;;;;;;;23.07;16.70;;;;;;;-2.43;90.14;98539.42;1733835;80;21111;-81
2021/01/28 02:53:06;;;;;;;26.97;17.87;;;;;;;-2.42;90.15;98541.95;1721184;83;22185;-78
2021/01/28 02:55:35;;;;;;;27.67;18.05;;;;;;;-2.40;90.16;98531.72;1721066;83;21131;-77
2021/01/28 02:58:03;;;;;;;27.32;17.25;;;;;;;-2.39;90.11;98528.28;1721040;83;21207;-80
2021/01/28 03:00:34;;;;;;;24.95;17.12;;;;;;;-2.38;90.11;98523.56;1721003;83;21207;-79
2021/01/28 03:03:05;;;;;;;27.30;18.32;;;;;;;-2.39;90.08;98518.05;1727718;82;21128;-80
2021/01/28 03:05:32;;;;;;;27.62;18.30;;;;;;;-2.38;90.12;98512.06;1721205;83;21204;-77
2021/01/28 03:07:59;;;;;;;29.10;19.77;;;;;;;-2.38;90.12;98501.84;1730301;82;21140;-79
2021/01/28 03:10:27;;;;;;;29.23;19.10;;;;;;;-2.37;90.19;98497.16;1738130;82;21670;-77
2021/01/28 03:12:54;;;;;;;28.23;18.92;;;;;;;-2.35;90.18;98491.56;1740012;82;21190;-76
2021/01/28 03:15:23;;;;;;;29.07;19.25;;;;;;;-2.35;90.16;98480.06;1743441;82;21579;-82
2021/01/28 03:17:55;;;;;;;27.42;19.70;;;;;;;-2.35;90.20;98479.66;1751010;81;22192;-76
2021/01/28 03:20:24;;;;;;;27.60;18.30;;;;;;;-2.34;90.20;98479.21;1750868;82;21155;-78
2021/01/28 03:22:51;;;;;;;28.95;20.17;;;;;;;-2.33;90.26;98471.94;1692747;84;21575;-82
2021/01/28 03:25:20;;;;;;;30.95;19.67;;;;;;;-2.33;90.27;98471.50;1693124;83;21175;-80
2021/01/28 03:27:48;;;;;;;28.32;19.35;;;;;;;-2.31;90.28;98470.22;1692798;84;21187;-77
2021/01/28 03:30:23;;;;;;;26.68;19.30;;;;;;;-2.29;90.30;98469.77;1692699;84;22573;-82
2021/01/28 03:32:51;;;;;;;31.70;20.30;;;;;;;-2.29;90.28;98464.65;1692372;84;21258;-77
2021/01/28 03:35:19;;;;;;;;;;;;;;;-2.26;90.32;98458.20;1695143;83;21127;-78
2021/01/28 03:37:47;;;;;;;28.77;20.70;;;;;;;-2.27;90.32;98455.22;1692259;83;20312;-79
2021/01/28 03:40:15;;;;;;;28.52;20.62;;;;;;;-2.27;90.32;98448.42;1692316;84;21172;-78
2021/01/28 03:42:42;;;;;;;31.90;20.32;;;;;;;-2.24;90.32;98436.02;1692177;84;21163;-83
2021/01/28 03:45:12;;;;;;;31.77;19.42;;;;;;;-2.23;90.27;98437.70;1692349;84;21155;-81
2021/01/28 03:47:39;;;;;;;29.10;20.92;;;;;;;-2.22;90.29;98436.82;1702699;83;21152;-80
2021/01/28 03:50:10;;;;;;;30.62;20.52;;;;;;;-2.23;90.25;98427.47;1692358;84;21199;-82
2021/01/28 03:52:37;;;;;;;28.35;18.98;;;;;;;-2.21;90.28;98430.86;1707175;83;21627;-81
2021/01/28 03:55:06;;;;;;;34.13;21.27;;;;;;;-2.22;90.26;98418.92;1721213;83;21210;-81
2021/01/28 03:57:33;;;;;;;28.35;20.72;;;;;;;-2.19;90.28;98416.30;1721078;83;21671;-76
2021/01/28 04:00:00;;;;;;;30.62;20.32;;;;;;;-2.18;90.29;98407.79;1699531;82;21246;-79
2021/01/28 04:02:27;;;;;;;25.95;18.77;;;;;;;-2.17;90.32;98405.63;1692287;84;21211;-77
2021/01/28 04:04:54;;;;;;;33.50;20.52;;;;;;;-2.16;90.33;98398.35;1709415;83;21226;-77
2021/01/28 04:07:21;;;;;;;27.22;19.55;;;;;;;-2.14;90.34;98391.50;1721189;83;21205;-78
2021/01/28 04:09:48;;;;;;;31.37;19.40;;;;;;;-2.13;90.34;98384.27;1717293;83;21595;-80
2021/01/28 04:12:15;;;;;;;27.77;19.00;;;;;;;-2.10;90.36;98376.94;1721173;83;21202;-79
2021/01/28 04:14:41;;;;;;;27.02;19.57;;;;;;;-2.10;90.35;98366.30;1713019;83;21591;-78
2021/01/28 04:17:08;;;;;;;29.75;19.80;;;;;;;-2.07;90.42;98362.84;1701754;83;21227;-80
2021/01/28 04:19:35;;;;;;;27.80;20.17;;;;;;;-2.05;90.39;98361.08;1692323;84;22147;-80
2021/01/28 04:22:02;;;;;;;29.50;19.95;;;;;;;-2.05;90.40;98355.53;1722352;81;21111;-79
2021/01/28 04:24:30;;;;;;;28.02;19.75;;;;;;;-2.04;90.38;98352.13;1788951;80;21127;-76
2021/01/28 04:26:56;;;;;;;29.65;20.48;;;;;;;-2.03;90.38;98340.16;1783429;80;21189;-76
2021/01/28 04:29:23;;;;;;;30.32;21.70;;;;;;;-2.00;90.41;98329.04;1757839;81;21154;-81
2021/01/28 04:31:50;;;;;;;27.10;18.52;;;;;;;-2.00;90.31;98329.04;1731853;82;21201;-78
2021/01/28 04:34:17;;;;;;;28.55;19.95;;;;;;;-1.99;90.41;98333.27;1759561;80;21688;-78
2021/01/28 04:36:44;;;;;;;28.70;17.85;;;;;;;-1.98;90.42;98329.86;1762063;81;21147;-83
2021/01/28 04:39:11;;;;;;;30.77;20.57;;;;;;;-1.97;90.39;98322.58;1761995;81;21146;-77
2021/01/28 04:41:38;;;;;;;30.08;20.37;;;;;;;-1.97;90.39;98320.02;1760458;81;21202;-77
2021/01/28 04:44:06;;;;;;;31.10;21.35;;;;;;;-1.96;90.40;98307.63;1739745;82;21547;-77
2021/01/28 04:46:47;;;;;;;28.98;19.67;;;;;;;-1.94;90.52;98302.05;1739492;82;21221;-78
2021/01/28 04:49:16;;;;;;;30.52;20.77;;;;;;;-1.93;90.48;98293.50;1739376;82;21185;-76
2021/01/28 04:51:46;;;;;;;28.65;19.50;;;;;;;-1.90;90.49;98285.79;1739599;82;21554;-77
2021/01/28 04:54:26;;;;;;;29.48;19.17;;;;;;;-1.88;90.47;98283.58;1750449;81;21107;-77
2021/01/28 04:56:57;;;;;;;30.95;19.60;;;;;;;-1.86;90.52;98283.56;1783199;80;21186;-76
2021/01/28 04:59:34;;;;;;;27.95;18.42;;;;;;;-1.84;90.46;98279.27;1731661;82;21139;-79
2021/01/28 05:02:07;;;;;;;25.45;18.73;;;;;;;-1.82;90.41;98273.25;1756886;81;21177;-77
2021/01/28 05:04:53;;;;;;;26.97;19.60;;;;;;;-1.80;90.45;98278.31;1731291;82;21143;-77
2021/01/28 05:07:31;;;;;;;26.40;18.95;;;;;;;-1.78;90.48;98272.73;1782010;80;21609;-77
2021/01/28 05:10:08;;;;;;;25.43;17.50;;;;;;;-1.75;90.51;98263.71;1758769;81;21150;-79
2021/01/28 05:12:35;;;;;;;31.95;18.42;;;;;;;-1.73;90.50;98254.30;1769732;81;21134;-76
2021/01/28 05:15:25;;;;;;;24.95;18.02;;;;;;;-1.70;90.59;98254.23;1757205;81;22262;-77
2021/01/28 05:18:23;;;;;;;24.85;17.70;;;;;;;-1.70;90.56;98241.43;1739304;82;21198;-80
2021/01/28 05:20:51;;;;;;;25.60;18.25;;;;;;;-1.70;90.59;98241.43;1738492;82;21142;-79
2021/01/28 05:23:34;;;;;;;24.20;18.05;;;;;;;-1.70;90.58;98231.20;1729136;82;22178;-80
2021/01/28 05:26:02;;;;;;;27.67;17.62;;;;;;;-1.70;90.60;98233.75;1747956;81;21135;-83
2021/01/28 05:28:41;;;;;;;24.15;16.37;;;;;;;-1.70;90.62;98226.08;1758412;81;21673;-78
2021/01/28 05:31:18;;;;;;;25.35;15.58;;;;;;;-1.71;90.63;98214.17;1758372;81;21182;-78
2021/01/28 05:33:45;;;;;;;22.60;16.27;;;;;;;-1.69;90.70;98220.07;1758638;81;26693;-82
2021/01/28 05:36:20;;;;;;;23.52;17.00;;;;;;;-1.68;90.69;98216.66;1758432;81;22267;-79
2021/01/28 05:38:51;;;;;;;25.02;15.65;;;;;;;-1.67;90.71;98208.09;1758310;81;21210;-80
2021/01/28 05:41:32;;;;;;;22.48;16.37;;;;;;;-1.67;90.75;98208.09;1758362;81;21154;-79
2021/01/28 05:44:24;;;;;;;22.95;16.27;;;;;;;-1.66;90.75;98203.36;1728193;82;21655;-84
2021/01/28 05:47:21;;;;;;;23.50;16.30;;;;;;;-1.64;90.76;98195.23;1701137;83;21587;-81
2021/01/28 05:49:50;;;;;;;28.17;17.42;;;;;;;-1.61;90.72;98190.03;1728349;83;21264;-77
2021/01/28 05:52:28;;;;;;;29.20;18.90;;;;;;;-1.63;90.69;98178.14;1728156;83;21187;-77
2021/01/28 05:55:18;;;;;;;27.37;18.20;;;;;;;-1.63;90.77;98178.98;1726789;83;21199;-80
2021/01/28 05:58:11;;;;;;;27.22;18.52;;;;;;;-1.61;90.76;98171.28;1728341;82;21662;-82
2021/01/28 06:00:54;;;;;;;27.55;19.73;;;;;;;-1.63;90.78;98170.02;1728172;83;21579;-81
2021/01/28 06:03:39;;;;;;;33.42;19.95;;;;;;;-1.63;90.75;98163.63;1753018;81;21210;-76
2021/01/28 06:06:37;;;;;;;25.80;18.50;;;;;;;-1.65;90.76;98163.28;1750495;81;21745;-80
2021/01/28 06:09:47;;;;;;;27.82;18.40;;;;;;;-1.67;90.79;98159.47;1734742;81;21591;-77
2021/01/28 06:12:22;;;;;;;29.20;18.45;;;;;;;-1.68;90.81;98157.80;1753278;81;21174;-77
2021/01/28 06:14:54;;;;;;;28.50;19.52;;;;;;;-1.69;90.84;98149.70;1766930;80;21182;-77
2021/01/28 06:18:02;;;;;;;29.80;19.23;;;;;;;-1.69;90.84;98142.02;1744682;82;22374;-81
2021/01/28 06:21:10;;;;;;;25.32;17.95;;;;;;;-1.69;90.87;98143.30;1778478;80;21161;-84
2021/01/28 06:24:22;;;;;;;27.00;19.70;;;;;;;-1.69;90.89;98140.74;1745124;78;21242;-78
2021/01/28 06:27:35;;;;;;;27.48;20.27;;;;;;;-1.70;90.85;98131.39;1675320;85;21299;-82
2021/01/28 06:30:40;;;;;;;33.78;21.23;;;;;;;-1.67;90.94;98122.36;1815606;78;22865;-79
2021/01/28 06:33:39;;;;;;;30.30;21.97;;;;;;;-1.71;90.91;98127.16;1716850;83;21367;-77
2021/01/28 06:36:31;;;;;;;28.40;21.07;;;;;;;-1.74;90.90;98123.37;1724284;83;22195;-80
2021/01/28 06:39:35;;;;;;;31.48;21.77;;;;;;;-1.74;90.94;98116.97;1724466;83;21218;-85
2021/01/28 06:42:25;;;;;;;32.90;20.92;;;;;;;-1.71;90.97;98106.69;1810332;78;23480;-82
2021/01/28 06:45:16;;;;;;;32.38;20.30;;;;;;;-1.76;90.96;98100.84;1759868;81;21595;-81
2021/01/28 06:48:05;;;;;;;34.70;23.00;;;;;;;-1.75;90.99;98097.83;1759694;81;21217;-81
2021/01/28 06:50:46;;;;;;;33.58;20.68;;;;;;;-1.76;90.99;98092.30;1766051;80;21136;-80
2021/01/28 06:53:53;;;;;;;32.90;22.20;;;;;;;-1.77;90.94;98099.14;1774483;80;21164;-84
2021/01/28 06:56:33;;;;;;;32.40;21.97;;;;;;;-1.78;90.93;98089.79;1761437;81;21155;-77
2021/01/28 06:59:20;;;;;;;33.35;23.70;;;;;;;-1.78;90.91;98089.79;1759908;80;21610;-84
2021/01/28 07:02:08;;;;;;;31.10;21.65;;;;;;;-1.77;90.94;98091.46;1759062;81;21937;-85
2021/01/28 07:05:12;;;;;;;32.75;22.05;;;;;;;-1.77;90.95;98082.50;1759892;81;21080;-85
2021/01/28 07:08:02;;;;;;;32.98;21.07;;;;;;;-1.74;90.97;98078.59;1759976;80;21687;-86
2021/01/28 07:10:40;;;;;;;30.75;20.95;;;;;;;-1.71;90.94;98077.27;1767755;81;21122;-86
2021/01/28 07:13:24;;;;;;;29.35;21.27;;;;;;;-1.68;90.93;98075.91;1767095;81;21137;-86
2021/01/28 07:15:59;;;;;;;27.58;20.80;;;;;;;-1.67;90.85;98072.45;1779372;80;21604;-86
2021/01/28 07:18:43;;;;;;;32.53;22.45;;;;;;;-1.66;90.83;98070.73;1790693;80;21167;-83
2021/01/28 07:21:15;;;;;;;29.57;21.02;;;;;;;-1.65;90.87;98063.03;1769295;80;21146;-87
2021/01/28 07:23:43;;;;;;;29.27;20.25;;;;;;;-1.64;90.83;98060.86;1759886;81;21140;-85
2021/01/28 07:26:20;;;;;;;31.07;22.45;;;;;;;-1.63;90.83;98057.86;1731813;81;21628;-83
2021/01/28 07:28:49;;;;;;;30.95;21.17;;;;;;;-1.64;90.78;98051.91;1762302;80;21488;-86
2021/01/28 07:31:47;;;;;;;27.55;20.27;;;;;;;-1.63;90.81;98051.02;1761170;80;21175;-85
2021/01/28 07:34:15;;;;;;;31.80;22.35;;;;;;;-1.61;90.87;98047.99;1759814;81;21155;-88
2021/01/28 07:36:48;;;;;;;30.57;21.90;;;;;;;-1.56;90.83;98052.17;1762641;80;21202;-87
2021/01/28 07:39:35;;;;;;;31.05;21.30;;;;;;;-1.54;90.80;98045.27;1760403;80;21182;-86
2021/01/28 07:42:28;;;;;;;29.80;21.30;;;;;;;-1.53;90.78;98036.28;1758699;80;22240;-85
2021/01/28 07:45:03;;;;;;;32.53;22.05;;;;;;;-1.51;90.77;98031.11;1777969;80;21151;-85
2021/01/28 07:47:35;;;;;;;33.75;19.65;;;;;;;-1.48;90.75;98032.34;1754283;81;21193;-83
2021/01/28 07:50:22;;;;;;;33.08;23.45;;;;;;;-1.44;90.84;98036.48;1769075;80;21222;-84
2021/01/28 07:52:51;;;;;;;;;;;;;;;-1.40;90.84;98030.39;1760119;80;21171;-85
2021/01/28 07:55:43;;;;;;;31.20;21.48;;;;;;;-1.36;90.79;98028.17;1774463;80;21413;-85
2021/01/28 07:58:21;;;;;;;29.77;21.42;;;;;;;-1.35;90.73;98022.98;1759947;80;21155;-86
2021/01/28 08:00:50;;;;;;;34.83;23.07;;;;;;;-1.34;90.69;98016.17;1762646;80;21267;-84
2021/01/28 08:03:29;;;;;;;34.45;23.42;;;;;;;-1.34;90.72;98018.73;1779420;79;21158;-87
2021/01/28 08:05:56;;;;;;;29.12;21.10;;;;;;;-1.32;90.71;98017.39;1752227;80;21253;-88
2021/01/28 08:08:24;;;;;;;32.13;22.10;;;;;;;-1.30;90.73;98010.08;1759734;80;21218;-88
2021/01/28 08:10:51;;;;;;;31.12;21.45;;;;;;;-1.30;90.63;97999.83;1775243;79;21168;-86
2021/01/28 08:13:25;;;;;;;28.95;21.33;;;;;;;-1.30;90.66;97992.16;1762688;79;21104;-89
2021/01/28 08:16:02;;;;;;;31.05;22.05;;;;;;;-1.26;90.67;97989.92;1755947;80;21143;-85
2021/01/28 08:18:32;;;;;;;29.15;21.45;;;;;;;-1.23;90.72;97988.55;1768387;79;21127;-86
2021/01/28 08:21:11;;;;;;;30.75;22.73;;;;;;;-1.23;90.72;97986.00;1757186;80;22099;-84
2021/01/28 08:23:43;;;;;;;30.30;21.42;;;;;;;-1.20;90.76;97990.20;1744521;81;21677;-86
2021/01/28 08:26:14;;;;;;;30.68;21.60;;;;;;;-1.20;90.74;97989.75;1765734;80;21154;-84
2021/01/28 08:28:44;;;;;;;31.27;20.62;;;;;;;-1.19;90.70;97982.45;1765058;80;21166;-87
2021/01/28 08:31:29;;;;;;;31.77;21.93;;;;;;;-1.17;90.71;97982.42;1776893;80;21167;-86
2021/01/28 08:34:00;;;;;;;28.65;20.35;;;;;;;-1.11;90.77;97980.13;1765828;80;23325;-88
2021/01/28 08:36:56;;;;;;;31.27;21.00;;;;;;;-1.07;90.73;97977.87;1773048;80;21187;-89
2021/01/28 08:39:28;;;;;;;31.00;21.27;;;;;;;-1.10;90.54;97972.84;1757349;80;21254;-82
2021/01/28 08:42:04;;;;;;;23.65;18.52;;;;;;;-1.07;90.74;97967.63;1759670;81;21248;-82
2021/01/28 08:44:33;;;;;;;29.30;19.37;;;;;;;-1.03;90.71;97964.11;1731094;79;21191;-81
2021/01/28 08:47:15;;;;;;;34.88;22.40;;;;;;;-1.00;90.73;97953.77;1762743;79;21202;-86
2021/01/28 08:49:43;;;;;;;31.65;21.37;;;;;;;-0.94;90.75;97953.59;1764912;80;21127;-86
2021/01/28 08:52:16;;;;;;;30.55;20.77;;;;;;;-0.85;90.65;97960.16;1767622;80;21133;-89
2021/01/28 08:54:46;;;;;;;28.75;20.77;;;;;;;-0.78;90.53;97957.38;1760730;81;21236;-87
2021/01/28 08:57:20;;;;;;;30.32;21.40;;;;;;;-0.74;90.47;97947.42;1766533;80;21179;-87
2021/01/28 08:59:51;;;;;;;25.97;19.57;;;;;;;-0.71;90.41;97946.04;1759069;80;21211;-87
2021/01/28 09:02:23;;;;;;;28.17;20.27;;;;;;;-0.65;90.47;97945.46;1763660;80;21174;-87
2021/01/28 09:05:00;;;;;;;24.65;19.00;;;;;;;-0.60;90.47;97942.32;1767309;81;21642;-90
2021/01/28 09:07:53;;;;;;;30.43;21.75;;;;;;;-0.59;90.27;97936.30;1765419;81;21155;-87
2021/01/28 09:10:35;;;;;;;30.32;21.80;;;;;;;-0.62;90.36;97940.24;1759154;81;21190;-90
2021/01/28 09:13:23;;;;;;;32.55;21.37;;;;;;;-0.55;90.46;97936.16;1764963;80;21203;-94
2021/01/28 09:16:12;;;;;;;26.27;19.73;;;;;;;-0.49;90.51;97937.70;1772951;80;21763;-88
2021/01/28 09:18:53;;;;;;;34.05;23.20;;;;;;;-0.41;90.35;97933.17;1799996;79;22647;-84
2021/01/28 09:21:24;;;;;;;28.07;19.87;;;;;;;-0.41;90.42;97933.17;1759868;81;21634;-90
2021/01/28 09:24:05;;;;;;;31.40;22.07;;;;;;;-0.34;90.50;97929.51;1759849;80;21200;-88
2021/01/28 09:26:38;;;;;;;29.75;21.95;;;;;;;-0.27;90.34;97919.91;1730025;79;21076;-86
2021/01/28 09:29:37;;;;;;;28.92;20.27;;;;;;;-0.25;90.21;97916.41;1759526;81;21114;-88
2021/01/28 09:32:12;;;;;;;28.95;20.43;;;;;;;-0.18;90.41;97924.73;1755545;81;21592;-87
2021/01/28 09:34:40;;;;;;;29.82;22.27;;;;;;;-0.18;90.22;97918.77;1753733;81;21048;-86
2021/01/28 09:37:19;;;;;;;;;;;;;;;-0.25;90.12;97911.28;1756424;81;21312;-87
2021/01/28 09:39:51;;;;;;;31.73;21.40;;;;;;;-0.27;90.12;97905.36;1757314;80;20230;-88
2021/01/28 09:42:28;;;;;;;27.10;19.73;;;;;;;-0.29;90.26;97900.71;1765032;81;21224;-87
2021/01/28 09:45:12;;;;;;;26.85;19.98;;;;;;;-0.24;90.32;97900.13;1760931;80;21204;-86
2021/01/28 09:47:42;;;;;;;22.35;16.37;;;;;;;-0.14;90.51;97910.07;1764909;80;21190;-87
2021/01/28 09:50:12;;;;;;;26.52;16.90;;;;;;;-0.02;90.72;97900.70;1779832;80;21266;-85
2021/01/28 09:52:45;;;;;;;22.50;15.93;;;;;;;0.08;90.57;97892.23;1727101;83;21815;-86
2021/01/28 09:55:22;;;;;;;22.10;16.00;;;;;;;0.18;90.61;97895.72;1723740;82;21640;-87
2021/01/28 09:57:51;;;;;;;21.13;15.50;;;;;;;0.32;90.59;97895.69;1706754;83;21299;-87
2021/01/28 10:00:22;;;;;;;18.80;13.90;;;;;;;0.44;90.60;97890.11;1735065;82;21617;-87
2021/01/28 10:03:00;;;;;;;18.48;13.03;;;;;;;0.55;90.54;97890.56;1713156;82;21713;-88
2021/01/28 10:05:31;;;;;;;17.30;13.03;;;;;;;0.66;90.37;97884.59;1733105;82;21207;-88
2021/01/28 10:08:00;;;;;;;16.40;12.58;;;;;;;0.74;90.25;97884.77;1711949;82;21231;-87
2021/01/28 10:10:32;;;;;;;17.70;13.72;;;;;;;0.89;90.45;97864.91;1742338;81;21102;-86
2021/01/28 10:13:03;;;;;;;15.32;11.73;;;;;;;1.03;90.18;97869.07;1717944;82;21497;-86
2021/01/28 10:15:30;;;;;;;15.23;10.32;;;;;;;1.01;89.87;97867.03;1713969;82;21207;-86
2021/01/28 10:17:59;;;;;;;17.52;10.70;;;;;;;1.03;89.98;97854.94;1703102;81;21218;-86
2021/01/28 10:20:27;;;;;;;9.93;8.58;;;;;;;1.10;89.84;97855.10;1744750;82;21132;-88
2021/01/28 10:23:01;;;;;;;10.53;8.25;;;;;;;1.30;90.14;97849.63;1732923;81;21288;-86
2021/01/28 10:25:28;;;;;;;9.08;7.50;;;;;;;1.45;90.01;97847.71;1725240;83;21179;-87
2021/01/28 10:27:57;;;;;;;9.75;7.12;;;;;;;1.71;90.16;97844.09;1703050;82;22649;-81
2021/01/28 10:30:24;;;;;;;10.60;7.03;;;;;;;1.92;90.08;97834.63;1713124;82;28243;-85
2021/01/28 10:32:53;;;;;;;6.65;5.50;;;;;;;1.97;89.73;97844.73;1710966;83;21167;-83
2021/01/28 10:35:25;;;;;;;6.70;5.15;;;;;;;2.05;89.62;97832.84;1703302;83;21208;-84
2021/01/28 10:37:52;;;;;;;5.95;5.12;;;;;;;2.00;89.59;97832.56;1697144;84;21167;-90
2021/01/28 10:40:20;;;;;;;8.15;4.95;;;;;;;1.95;89.37;97825.94;1723091;82;21211;-90
2021/01/28 10:42:48;;;;;;;9.88;7.40;;;;;;;1.83;89.23;97822.16;1714189;82;21742;-89
2021/01/28 10:45:18;;;;;;;;;;;;;;;1.75;89.25;97819.90;1711252;82;21686;-90
2021/01/28 10:47:45;;;;;;;6.42;4.53;;;;;;;1.89;89.98;97823.17;1718974;82;20278;-87
2021/01/28 10:50:14;;;;;;;4.45;3.52;;;;;;;2.10;90.09;97811.14;1710708;82;21191;-87
2021/01/28 10:52:41;;;;;;;3.80;3.33;;;;;;;2.57;90.73;97809.91;1728445;81;21227;-86
2021/01/28 10:55:10;;;;;;;4.17;3.30;;;;;;;2.94;89.98;97817.23;1721155;83;21560;-89
2021/01/28 10:57:37;;;;;;;5.60;3.17;;;;;;;3.07;89.60;97813.17;1731756;81;21168;-89
2021/01/28 11:00:06;;;;;;;5.37;3.55;;;;;;;3.23;89.46;97819.28;1729620;82;21168;-88
2021/01/28 11:02:33;;;;;;;5.62;4.10;;;;;;;3.13;89.12;97811.59;1750049;81;21210;-86
2021/01/28 11:05:00;;;;;;;5.35;3.65;;;;;;;2.86;88.54;97819.73;1729107;81;22163;-84
2021/01/28 11:07:27;;;;;;;3.52;2.67;;;;;;;2.56;88.66;97817.27;1703045;82;21219;-88
2021/01/28 11:09:54;;;;;;;5.97;2.90;;;;;;;2.25;88.74;97813.48;1733494;81;21167;-87
2021/01/28 11:12:21;;;;;;;5.60;2.30;;;;;;;1.86;88.63;97827.17;1718053;82;21170;-86
2021/01/28 11:14:48;;;;;;;3.17;1.47;;;;;;;1.44;93.19;97819.50;1712524;82;21181;-89
2021/01/28 11:17:15;;;;;;;5.03;1.85;;;;;;;0.95;93.74;97799.14;1717314;82;21270;-87
2021/01/28 11:19:42;;;;;;;4.37;1.50;;;;;;;0.72;93.75;97814.63;1708178;83;21651;-88
2021/01/28 11:22:09;;;;;;;3.60;1.77;;;;;;;0.71;93.34;97807.82;1713313;83;21670;-85
2021/01/28 11:24:36;;;;;;;7.42;2.40;;;;;;;0.84;91.56;97806.01;1757350;81;21179;-80
2021/01/28 11:27:03;;;;;;;5.97;2.52;;;;;;;1.07;91.56;97801.25;1741000;81;21190;-85
2021/01/28 11:29:32;;;;;;;3.62;1.90;;;;;;;1.13;90.67;97812.19;1734420;81;21214;-86
2021/01/28 11:31:59;;;;;;;5.80;2.12;;;;;;;1.02;90.57;97807.47;1744109;81;21208;-85
2021/01/28 11:34:27;;;;;;;3.92;1.30;;;;;;;0.99;90.55;97816.13;1733047;81;23171;-86
2021/01/28 11:36:54;;;;;;;1.65;0.80;;;;;;;0.88;90.29;97810.58;1729378;81;21665;-84
2021/01/28 11:39:21;;;;;;;2.60;1.10;;;;;;;0.73;90.11;97811.14;1716549;83;21235;-82
2021/01/28 11:41:48;;;;;;;2.52;0.78;;;;;;;0.52;90.05;97803.36;1731240;81;22207;-87
2021/01/28 11:44:16;;;;;;;1.82;0.78;;;;;;;0.42;90.25;97816.14;1705516;83;21171;-85
2021/01/28 11:46:43;;;;;;;2.92;0.98;;;;;;;0.36;90.49;97807.39;1728405;81;21172;-89
2021/01/28 11:49:12;;;;;;;1.77;0.95;;;;;;;0.47;90.88;97810.85;1725682;83;21684;-89
2021/01/28 11:51:39;;;;;;;3.62;1.27;;;;;;;0.48;90.37;97802.23;1710054;83;21191;-84
2021/01/28 11:54:07;;;;;;;3.60;1.45;;;;;;;0.47;90.53;97807.83;1704055;83;22182;-87
2021/01/28 11:56:35;;;;;;;2.00;1.17;;;;;;;0.68;91.03;97810.51;1742355;81;21159;-87
2021/01/28 11:59:01;;;;;;;2.17;1.27;;;;;;;1.00;91.14;97804.95;1714338;82;21214;-85